Volgograd, Russia
Current Conditions -  °F | °C
As of 7:00 AM on Monday 26 Jan 2015 (Local Time) from URWW Reporting Station
Overcast Overcast  
Wind Chill: -12°   Ceiling: 1000
Heat Index:   Visibility: 6mi
Dew Point:   Wind: 18mph
Humidity: 79%   Direction: 90°E
Pressure: 30.48"   Gusts: NA
Location:  48.71°N, 44.48°E
Report Text: URWW 260400Z 09008MPS 9999 OVC010 M14/M17 Q1032 NOSIG RMK11720360
Loading
Personal Weather Stations






























Interactive Weather Map New forecast layout! Learn more

10-Day Weather Forecast

Advertisements
Track Severe Weather on mobile